sensor_id;sensor_type;location;lat;lon;timestamp;P1;durP1;ratioP1;P2;durP2;ratioP2
59127;SDS011;44912;52.754;5.994;2022-11-13T00:00:17;20.08;;;16.17;;
59127;SDS011;44912;52.754;5.994;2022-11-13T00:02:43;22.52;;;16.35;;
59127;SDS011;44912;52.754;5.994;2022-11-13T00:05:08;22.33;;;15.77;;
59127;SDS011;44912;52.754;5.994;2022-11-13T00:07:34;22.75;;;17.48;;
59127;SDS011;44912;52.754;5.994;2022-11-13T00:09:59;23.35;;;16.58;;
59127;SDS011;44912;52.754;5.994;2022-11-13T00:12:25;23.95;;;18.15;;
59127;SDS011;44912;52.754;5.994;2022-11-13T00:14:50;21.45;;;17.63;;
59127;SDS011;44912;52.754;5.994;2022-11-13T00:17:16;21.95;;;17.27;;
59127;SDS011;44912;52.754;5.994;2022-11-13T00:19:41;24.95;;;18.98;;
59127;SDS011;44912;52.754;5.994;2022-11-13T00:22:07;21.75;;;17.35;;
59127;SDS011;44912;52.754;5.994;2022-11-13T00:24:33;21.90;;;17.73;;
59127;SDS011;44912;52.754;5.994;2022-11-13T00:26:58;26.90;;;18.60;;
59127;SDS011;44912;52.754;5.994;2022-11-13T00:29:24;21.73;;;17.38;;
59127;SDS011;44912;52.754;5.994;2022-11-13T00:31:49;24.15;;;17.90;;
59127;SDS011;44912;52.754;5.994;2022-11-13T00:34:15;21.88;;;16.75;;
59127;SDS011;44912;52.754;5.994;2022-11-13T00:36:40;17.15;;;14.40;;
59127;SDS011;44912;52.754;5.994;2022-11-13T00:39:06;19.38;;;15.75;;
59127;SDS011;44912;52.754;5.994;2022-11-13T00:41:31;16.63;;;14.15;;
59127;SDS011;44912;52.754;5.994;2022-11-13T00:43:57;16.70;;;13.07;;
59127;SDS011;44912;52.754;5.994;2022-11-13T00:46:22;19.33;;;15.18;;
59127;SDS011;44912;52.754;5.994;2022-11-13T00:48:48;18.25;;;13.98;;
59127;SDS011;44912;52.754;5.994;2022-11-13T00:51:13;19.23;;;15.55;;
59127;SDS011;44912;52.754;5.994;2022-11-13T00:53:39;18.77;;;14.93;;
59127;SDS011;44912;52.754;5.994;2022-11-13T00:56:04;19.40;;;14.93;;
59127;SDS011;44912;52.754;5.994;2022-11-13T00:58:30;19.17;;;14.57;;
59127;SDS011;44912;52.754;5.994;2022-11-13T01:01:01;19.08;;;15.00;;
59127;SDS011;44912;52.754;5.994;2022-11-13T01:03:29;20.88;;;16.60;;
59127;SDS011;44912;52.754;5.994;2022-11-13T01:05:54;20.77;;;15.98;;
59127;SDS011;44912;52.754;5.994;2022-11-13T01:08:20;21.80;;;15.93;;
59127;SDS011;44912;52.754;5.994;2022-11-13T01:10:46;24.30;;;17.08;;
59127;SDS011;44912;52.754;5.994;2022-11-13T01:13:13;22.38;;;17.75;;
59127;SDS011;44912;52.754;5.994;2022-11-13T01:15:39;23.60;;;17.25;;
59127;SDS011;44912;52.754;5.994;2022-11-13T01:18:06;20.88;;;17.38;;
59127;SDS011;44912;52.754;5.994;2022-11-13T01:20:32;23.83;;;18.17;;
59127;SDS011;44912;52.754;5.994;2022-11-13T01:22:58;21.38;;;17.70;;
59127;SDS011;44912;52.754;5.994;2022-11-13T01:25:23;21.50;;;17.52;;
59127;SDS011;44912;52.754;5.994;2022-11-13T01:27:49;21.98;;;17.42;;
59127;SDS011;44912;52.754;5.994;2022-11-13T01:30:14;22.40;;;18.40;;
59127;SDS011;44912;52.754;5.994;2022-11-13T01:32:40;22.52;;;18.33;;
59127;SDS011;44912;52.754;5.994;2022-11-13T01:35:06;23.17;;;18.10;;
59127;SDS011;44912;52.754;5.994;2022-11-13T01:37:32;22.88;;;18.45;;
59127;SDS011;44912;52.754;5.994;2022-11-13T01:39:57;26.48;;;19.60;;
59127;SDS011;44912;52.754;5.994;2022-11-13T01:42:23;23.50;;;18.60;;
59127;SDS011;44912;52.754;5.994;2022-11-13T01:47:19;23.52;;;19.23;;
59127;SDS011;44912;52.754;5.994;2022-11-13T01:49:47;24.08;;;18.95;;
59127;SDS011;44912;52.754;5.994;2022-11-13T01:52:22;21.08;;;17.05;;
59127;SDS011;44912;52.754;5.994;2022-11-13T01:54:59;27.92;;;18.48;;
59127;SDS011;44912;52.754;5.994;2022-11-13T01:57:31;22.23;;;17.23;;
59127;SDS011;44912;52.754;5.994;2022-11-13T01:59:59;23.77;;;18.58;;
59127;SDS011;44912;52.754;5.994;2022-11-13T02:02:29;22.23;;;17.95;;
59127;SDS011;44912;52.754;5.994;2022-11-13T02:04:54;22.95;;;18.38;;
59127;SDS011;44912;52.754;5.994;2022-11-13T02:07:20;22.02;;;17.52;;
59127;SDS011;44912;52.754;5.994;2022-11-13T02:09:47;21.02;;;17.90;;
59127;SDS011;44912;52.754;5.994;2022-11-13T02:12:20;22.67;;;17.45;;
59127;SDS011;44912;52.754;5.994;2022-11-13T02:14:53;24.38;;;18.88;;
59127;SDS011;44912;52.754;5.994;2022-11-13T02:17:24;23.02;;;18.15;;
59127;SDS011;44912;52.754;5.994;2022-11-13T02:19:56;23.73;;;18.70;;
59127;SDS011;44912;52.754;5.994;2022-11-13T02:25:21;22.30;;;17.48;;
59127;SDS011;44912;52.754;5.994;2022-11-13T02:27:49;24.00;;;17.95;;
59127;SDS011;44912;52.754;5.994;2022-11-13T02:30:19;20.83;;;17.10;;
59127;SDS011;44912;52.754;5.994;2022-11-13T02:32:48;23.45;;;17.52;;
59127;SDS011;44912;52.754;5.994;2022-11-13T02:35:17;21.98;;;16.40;;
59127;SDS011;44912;52.754;5.994;2022-11-13T02:37:46;20.33;;;17.05;;
59127;SDS011;44912;52.754;5.994;2022-11-13T02:40:12;22.85;;;17.20;;
59127;SDS011;44912;52.754;5.994;2022-11-13T02:42:38;24.75;;;18.10;;
59127;SDS011;44912;52.754;5.994;2022-11-13T02:45:03;22.38;;;17.00;;
59127;SDS011;44912;52.754;5.994;2022-11-13T02:47:30;20.00;;;16.05;;
59127;SDS011;44912;52.754;5.994;2022-11-13T02:49:56;18.67;;;15.18;;
59127;SDS011;44912;52.754;5.994;2022-11-13T02:52:22;22.75;;;16.92;;
59127;SDS011;44912;52.754;5.994;2022-11-13T02:54:47;21.45;;;16.80;;
59127;SDS011;44912;52.754;5.994;2022-11-13T02:57:13;20.00;;;16.70;;
59127;SDS011;44912;52.754;5.994;2022-11-13T02:59:38;20.85;;;16.13;;
59127;SDS011;44912;52.754;5.994;2022-11-13T03:02:04;20.88;;;16.48;;
59127;SDS011;44912;52.754;5.994;2022-11-13T03:04:29;22.48;;;16.58;;
59127;SDS011;44912;52.754;5.994;2022-11-13T03:06:55;20.58;;;15.52;;
59127;SDS011;44912;52.754;5.994;2022-11-13T03:09:20;23.00;;;17.15;;
59127;SDS011;44912;52.754;5.994;2022-11-13T03:11:46;19.63;;;16.17;;
59127;SDS011;44912;52.754;5.994;2022-11-13T03:14:11;21.92;;;16.88;;
59127;SDS011;44912;52.754;5.994;2022-11-13T03:16:37;23.50;;;15.02;;
59127;SDS011;44912;52.754;5.994;2022-11-13T03:19:03;21.17;;;15.88;;
59127;SDS011;44912;52.754;5.994;2022-11-13T03:21:29;19.58;;;15.75;;
59127;SDS011;44912;52.754;5.994;2022-11-13T03:23:55;21.30;;;14.52;;
59127;SDS011;44912;52.754;5.994;2022-11-13T03:26:21;19.80;;;16.40;;
59127;SDS011;44912;52.754;5.994;2022-11-13T03:28:46;20.08;;;15.80;;
59127;SDS011;44912;52.754;5.994;2022-11-13T03:31:12;18.67;;;15.48;;
59127;SDS011;44912;52.754;5.994;2022-11-13T03:33:37;21.38;;;15.48;;
59127;SDS011;44912;52.754;5.994;2022-11-13T03:36:03;17.95;;;14.70;;
59127;SDS011;44912;52.754;5.994;2022-11-13T03:38:29;18.23;;;13.98;;
59127;SDS011;44912;52.754;5.994;2022-11-13T03:40:55;17.65;;;13.75;;
59127;SDS011;44912;52.754;5.994;2022-11-13T03:43:21;19.27;;;14.82;;
59127;SDS011;44912;52.754;5.994;2022-11-13T03:45:46;17.73;;;14.20;;
59127;SDS011;44912;52.754;5.994;2022-11-13T03:48:12;19.25;;;15.23;;
59127;SDS011;44912;52.754;5.994;2022-11-13T03:50:40;18.00;;;15.05;;
59127;SDS011;44912;52.754;5.994;2022-11-13T03:53:07;21.58;;;15.43;;
59127;SDS011;44912;52.754;5.994;2022-11-13T03:55:32;20.35;;;15.10;;
59127;SDS011;44912;52.754;5.994;2022-11-13T03:57:58;18.90;;;15.85;;
59127;SDS011;44912;52.754;5.994;2022-11-13T04:00:24;19.33;;;15.43;;
59127;SDS011;44912;52.754;5.994;2022-11-13T04:02:49;18.25;;;14.93;;
59127;SDS011;44912;52.754;5.994;2022-11-13T04:05:15;20.80;;;16.13;;
59127;SDS011;44912;52.754;5.994;2022-11-13T04:07:40;18.80;;;15.38;;
59127;SDS011;44912;52.754;5.994;2022-11-13T04:10:06;20.10;;;15.40;;
59127;SDS011;44912;52.754;5.994;2022-11-13T04:12:32;20.45;;;15.32;;
59127;SDS011;44912;52.754;5.994;2022-11-13T04:14:57;20.48;;;15.25;;
59127;SDS011;44912;52.754;5.994;2022-11-13T04:17:23;19.70;;;14.82;;
59127;SDS011;44912;52.754;5.994;2022-11-13T04:19:48;19.88;;;15.60;;
59127;SDS011;44912;52.754;5.994;2022-11-13T04:22:14;22.27;;;16.02;;
59127;SDS011;44912;52.754;5.994;2022-11-13T04:24:39;21.02;;;15.35;;
59127;SDS011;44912;52.754;5.994;2022-11-13T04:27:05;20.42;;;15.55;;
59127;SDS011;44912;52.754;5.994;2022-11-13T04:29:30;18.10;;;15.27;;
59127;SDS011;44912;52.754;5.994;2022-11-13T04:31:56;20.15;;;14.52;;
59127;SDS011;44912;52.754;5.994;2022-11-13T04:34:21;19.15;;;15.80;;
59127;SDS011;44912;52.754;5.994;2022-11-13T04:36:47;19.75;;;14.90;;
59127;SDS011;44912;52.754;5.994;2022-11-13T04:39:12;19.00;;;14.60;;
59127;SDS011;44912;52.754;5.994;2022-11-13T04:41:38;19.50;;;15.00;;
59127;SDS011;44912;52.754;5.994;2022-11-13T04:44:22;20.95;;;16.00;;
59127;SDS011;44912;52.754;5.994;2022-11-13T04:46:48;21.02;;;15.50;;
59127;SDS011;44912;52.754;5.994;2022-11-13T04:49:13;19.60;;;14.90;;
59127;SDS011;44912;52.754;5.994;2022-11-13T04:51:39;19.63;;;15.40;;
59127;SDS011;44912;52.754;5.994;2022-11-13T04:54:04;18.98;;;15.57;;
59127;SDS011;44912;52.754;5.994;2022-11-13T04:56:30;19.55;;;14.40;;
59127;SDS011;44912;52.754;5.994;2022-11-13T04:58:55;20.13;;;14.63;;
59127;SDS011;44912;52.754;5.994;2022-11-13T05:01:21;19.63;;;14.52;;
59127;SDS011;44912;52.754;5.994;2022-11-13T05:03:46;20.65;;;15.68;;
59127;SDS011;44912;52.754;5.994;2022-11-13T05:06:12;20.55;;;15.40;;
59127;SDS011;44912;52.754;5.994;2022-11-13T05:08:37;22.00;;;15.73;;
59127;SDS011;44912;52.754;5.994;2022-11-13T05:11:03;20.17;;;15.73;;
59127;SDS011;44912;52.754;5.994;2022-11-13T05:13:29;20.38;;;15.25;;
59127;SDS011;44912;52.754;5.994;2022-11-13T05:16:02;21.27;;;15.52;;
59127;SDS011;44912;52.754;5.994;2022-11-13T05:18:30;18.35;;;15.82;;
59127;SDS011;44912;52.754;5.994;2022-11-13T05:20:56;19.42;;;15.25;;
59127;SDS011;44912;52.754;5.994;2022-11-13T05:23:21;20.13;;;15.00;;
59127;SDS011;44912;52.754;5.994;2022-11-13T05:25:47;20.75;;;14.77;;
59127;SDS011;44912;52.754;5.994;2022-11-13T05:28:13;19.17;;;15.23;;
59127;SDS011;44912;52.754;5.994;2022-11-13T05:30:38;19.98;;;14.93;;
59127;SDS011;44912;52.754;5.994;2022-11-13T05:33:04;18.88;;;13.98;;
59127;SDS011;44912;52.754;5.994;2022-11-13T05:35:29;20.70;;;15.32;;
59127;SDS011;44912;52.754;5.994;2022-11-13T05:37:58;22.85;;;16.75;;
59127;SDS011;44912;52.754;5.994;2022-11-13T05:40:24;22.73;;;16.95;;
59127;SDS011;44912;52.754;5.994;2022-11-13T05:42:51;22.45;;;17.40;;
59127;SDS011;44912;52.754;5.994;2022-11-13T05:45:17;21.35;;;17.58;;
59127;SDS011;44912;52.754;5.994;2022-11-13T05:47:43;24.27;;;17.73;;
59127;SDS011;44912;52.754;5.994;2022-11-13T05:50:08;20.63;;;16.95;;
59127;SDS011;44912;52.754;5.994;2022-11-13T05:52:34;21.05;;;16.42;;
59127;SDS011;44912;52.754;5.994;2022-11-13T05:54:59;23.88;;;17.02;;
59127;SDS011;44912;52.754;5.994;2022-11-13T05:57:25;21.52;;;16.23;;
59127;SDS011;44912;52.754;5.994;2022-11-13T05:59:50;23.95;;;15.93;;
59127;SDS011;44912;52.754;5.994;2022-11-13T06:02:16;23.40;;;15.25;;
59127;SDS011;44912;52.754;5.994;2022-11-13T06:04:41;21.48;;;16.33;;
59127;SDS011;44912;52.754;5.994;2022-11-13T06:07:07;19.50;;;12.82;;
59127;SDS011;44912;52.754;5.994;2022-11-13T06:09:33;17.60;;;12.35;;
59127;SDS011;44912;52.754;5.994;2022-11-13T06:11:58;15.93;;;11.20;;
59127;SDS011;44912;52.754;5.994;2022-11-13T06:14:24;17.55;;;11.18;;
59127;SDS011;44912;52.754;5.994;2022-11-13T06:16:50;19.98;;;11.77;;
59127;SDS011;44912;52.754;5.994;2022-11-13T06:19:15;17.52;;;11.82;;
59127;SDS011;44912;52.754;5.994;2022-11-13T06:21:41;16.75;;;11.23;;
59127;SDS011;44912;52.754;5.994;2022-11-13T06:24:07;16.23;;;11.23;;
59127;SDS011;44912;52.754;5.994;2022-11-13T06:26:36;16.40;;;11.68;;
59127;SDS011;44912;52.754;5.994;2022-11-13T06:29:03;17.30;;;11.15;;
59127;SDS011;44912;52.754;5.994;2022-11-13T06:31:31;19.20;;;12.23;;
59127;SDS011;44912;52.754;5.994;2022-11-13T06:33:59;16.55;;;11.13;;
59127;SDS011;44912;52.754;5.994;2022-11-13T06:36:26;16.33;;;11.85;;
59127;SDS011;44912;52.754;5.994;2022-11-13T06:38:53;18.83;;;11.75;;
59127;SDS011;44912;52.754;5.994;2022-11-13T06:41:20;18.15;;;11.85;;
59127;SDS011;44912;52.754;5.994;2022-11-13T06:43:47;15.00;;;10.90;;
59127;SDS011;44912;52.754;5.994;2022-11-13T06:46:15;17.13;;;11.60;;
59127;SDS011;44912;52.754;5.994;2022-11-13T06:48:44;19.35;;;13.38;;
59127;SDS011;44912;52.754;5.994;2022-11-13T06:51:13;18.35;;;13.68;;
59127;SDS011;44912;52.754;5.994;2022-11-13T06:53:40;20.13;;;14.27;;
59127;SDS011;44912;52.754;5.994;2022-11-13T06:56:05;20.63;;;15.07;;
59127;SDS011;44912;52.754;5.994;2022-11-13T06:58:31;18.70;;;14.30;;
59127;SDS011;44912;52.754;5.994;2022-11-13T07:01:03;21.60;;;14.43;;
59127;SDS011;44912;52.754;5.994;2022-11-13T07:03:30;20.30;;;14.80;;
59127;SDS011;44912;52.754;5.994;2022-11-13T07:05:55;21.10;;;15.07;;
59127;SDS011;44912;52.754;5.994;2022-11-13T07:08:21;19.95;;;15.45;;
59127;SDS011;44912;52.754;5.994;2022-11-13T07:10:53;21.52;;;15.00;;
59127;SDS011;44912;52.754;5.994;2022-11-13T07:13:20;19.35;;;13.73;;
59127;SDS011;44912;52.754;5.994;2022-11-13T07:15:46;18.65;;;13.57;;
59127;SDS011;44912;52.754;5.994;2022-11-13T07:18:11;20.95;;;14.80;;
59127;SDS011;44912;52.754;5.994;2022-11-13T07:20:37;20.73;;;15.65;;
59127;SDS011;44912;52.754;5.994;2022-11-13T07:23:03;22.10;;;15.15;;
59127;SDS011;44912;52.754;5.994;2022-11-13T07:25:28;19.80;;;14.50;;
59127;SDS011;44912;52.754;5.994;2022-11-13T07:27:55;20.83;;;14.57;;
59127;SDS011;44912;52.754;5.994;2022-11-13T07:30:21;21.15;;;14.52;;
59127;SDS011;44912;52.754;5.994;2022-11-13T07:32:47;19.33;;;13.60;;
59127;SDS011;44912;52.754;5.994;2022-11-13T07:35:12;19.90;;;14.43;;
59127;SDS011;44912;52.754;5.994;2022-11-13T07:37:38;19.40;;;14.45;;
59127;SDS011;44912;52.754;5.994;2022-11-13T07:40:04;20.35;;;14.00;;
59127;SDS011;44912;52.754;5.994;2022-11-13T07:42:30;18.52;;;13.30;;
59127;SDS011;44912;52.754;5.994;2022-11-13T07:44:56;19.05;;;13.60;;
59127;SDS011;44912;52.754;5.994;2022-11-13T07:47:22;21.48;;;14.27;;
59127;SDS011;44912;52.754;5.994;2022-11-13T07:49:48;20.90;;;14.30;;
59127;SDS011;44912;52.754;5.994;2022-11-13T07:52:13;21.70;;;14.90;;
59127;SDS011;44912;52.754;5.994;2022-11-13T07:54:39;21.13;;;15.48;;
59127;SDS011;44912;52.754;5.994;2022-11-13T07:57:05;20.17;;;15.05;;
59127;SDS011;44912;52.754;5.994;2022-11-13T07:59:30;20.90;;;14.98;;
59127;SDS011;44912;52.754;5.994;2022-11-13T08:01:56;18.13;;;14.65;;
59127;SDS011;44912;52.754;5.994;2022-11-13T08:04:21;19.63;;;14.35;;
59127;SDS011;44912;52.754;5.994;2022-11-13T08:06:47;19.10;;;14.88;;
59127;SDS011;44912;52.754;5.994;2022-11-13T08:09:12;19.65;;;14.85;;
59127;SDS011;44912;52.754;5.994;2022-11-13T08:11:38;19.20;;;15.02;;
59127;SDS011;44912;52.754;5.994;2022-11-13T08:14:03;22.17;;;15.32;;
59127;SDS011;44912;52.754;5.994;2022-11-13T08:16:29;18.33;;;14.48;;
59127;SDS011;44912;52.754;5.994;2022-11-13T08:18:55;19.58;;;14.80;;
59127;SDS011;44912;52.754;5.994;2022-11-13T08:21:20;22.20;;;14.10;;
59127;SDS011;44912;52.754;5.994;2022-11-13T08:23:46;18.38;;;14.48;;
59127;SDS011;44912;52.754;5.994;2022-11-13T08:26:14;18.55;;;14.68;;
59127;SDS011;44912;52.754;5.994;2022-11-13T08:28:40;19.63;;;14.30;;
59127;SDS011;44912;52.754;5.994;2022-11-13T08:31:08;18.95;;;14.73;;
59127;SDS011;44912;52.754;5.994;2022-11-13T08:33:39;18.52;;;14.80;;
59127;SDS011;44912;52.754;5.994;2022-11-13T08:36:05;18.20;;;13.73;;
59127;SDS011;44912;52.754;5.994;2022-11-13T08:38:30;18.08;;;13.68;;
59127;SDS011;44912;52.754;5.994;2022-11-13T08:40:57;17.83;;;14.30;;
59127;SDS011;44912;52.754;5.994;2022-11-13T08:43:23;18.15;;;13.77;;
59127;SDS011;44912;52.754;5.994;2022-11-13T08:45:49;17.17;;;13.23;;
59127;SDS011;44912;52.754;5.994;2022-11-13T08:48:15;16.48;;;13.30;;
59127;SDS011;44912;52.754;5.994;2022-11-13T08:50:41;16.65;;;12.85;;
59127;SDS011;44912;52.754;5.994;2022-11-13T08:53:06;15.25;;;12.02;;
59127;SDS011;44912;52.754;5.994;2022-11-13T08:55:32;16.63;;;12.38;;
59127;SDS011;44912;52.754;5.994;2022-11-13T08:57:59;18.00;;;12.25;;
59127;SDS011;44912;52.754;5.994;2022-11-13T09:00:26;19.77;;;12.90;;
59127;SDS011;44912;52.754;5.994;2022-11-13T09:02:53;14.35;;;11.05;;
59127;SDS011;44912;52.754;5.994;2022-11-13T09:05:19;14.75;;;11.13;;
59127;SDS011;44912;52.754;5.994;2022-11-13T09:07:45;15.75;;;11.52;;
59127;SDS011;44912;52.754;5.994;2022-11-13T09:10:11;14.40;;;11.00;;
59127;SDS011;44912;52.754;5.994;2022-11-13T09:12:37;13.75;;;11.15;;
59127;SDS011;44912;52.754;5.994;2022-11-13T09:15:02;16.48;;;11.73;;
59127;SDS011;44912;52.754;5.994;2022-11-13T09:17:29;14.07;;;10.60;;
59127;SDS011;44912;52.754;5.994;2022-11-13T09:19:55;13.30;;;10.02;;
59127;SDS011;44912;52.754;5.994;2022-11-13T09:22:21;13.40;;;11.27;;
59127;SDS011;44912;52.754;5.994;2022-11-13T09:24:46;14.68;;;10.57;;
59127;SDS011;44912;52.754;5.994;2022-11-13T09:27:12;13.18;;;10.27;;
59127;SDS011;44912;52.754;5.994;2022-11-13T09:29:38;12.52;;;10.48;;
59127;SDS011;44912;52.754;5.994;2022-11-13T09:32:03;13.18;;;10.25;;
59127;SDS011;44912;52.754;5.994;2022-11-13T09:34:29;14.43;;;10.60;;
59127;SDS011;44912;52.754;5.994;2022-11-13T09:36:55;13.98;;;10.45;;
59127;SDS011;44912;52.754;5.994;2022-11-13T09:39:21;13.60;;;9.57;;
59127;SDS011;44912;52.754;5.994;2022-11-13T09:42:01;12.85;;;10.23;;
59127;SDS011;44912;52.754;5.994;2022-11-13T09:44:38;14.95;;;10.15;;
59127;SDS011;44912;52.754;5.994;2022-11-13T09:49:50;13.03;;;10.00;;
59127;SDS011;44912;52.754;5.994;2022-11-13T09:52:30;14.02;;;9.65;;
59127;SDS011;44912;52.754;5.994;2022-11-13T09:54:59;14.32;;;9.85;;
59127;SDS011;44912;52.754;5.994;2022-11-13T09:58:02;13.57;;;8.73;;
59127;SDS011;44912;52.754;5.994;2022-11-13T10:00:21;10.93;;;8.63;;
59127;SDS011;44912;52.754;5.994;2022-11-13T10:08:29;11.70;;;9.10;;
59127;SDS011;44912;52.754;5.994;2022-11-13T10:14:17;12.23;;;9.23;;
59127;SDS011;44912;52.754;5.994;2022-11-13T10:16:50;11.75;;;9.10;;
59127;SDS011;44912;52.754;5.994;2022-11-13T10:22:04;11.57;;;9.10;;
59127;SDS011;44912;52.754;5.994;2022-11-13T10:27:57;11.93;;;8.85;;
59127;SDS011;44912;52.754;5.994;2022-11-13T10:30:27;11.40;;;8.45;;
59127;SDS011;44912;52.754;5.994;2022-11-13T10:32:53;11.50;;;8.18;;
59127;SDS011;44912;52.754;5.994;2022-11-13T10:38:04;12.73;;;8.77;;
59127;SDS011;44912;52.754;5.994;2022-11-13T10:40:40;11.77;;;8.70;;
59127;SDS011;44912;52.754;5.994;2022-11-13T10:43:11;11.90;;;8.30;;
59127;SDS011;44912;52.754;5.994;2022-11-13T10:45:53;11.20;;;8.27;;
59127;SDS011;44912;52.754;5.994;2022-11-13T10:48:26;11.77;;;8.57;;
59127;SDS011;44912;52.754;5.994;2022-11-13T10:50:54;10.52;;;7.63;;
59127;SDS011;44912;52.754;5.994;2022-11-13T10:53:25;12.20;;;8.48;;
59127;SDS011;44912;52.754;5.994;2022-11-13T10:55:56;10.27;;;7.60;;
59127;SDS011;44912;52.754;5.994;2022-11-13T10:58:23;11.30;;;8.05;;
59127;SDS011;44912;52.754;5.994;2022-11-13T11:00:49;12.18;;;7.88;;
59127;SDS011;44912;52.754;5.994;2022-11-13T11:03:17;11.43;;;7.57;;
59127;SDS011;44912;52.754;5.994;2022-11-13T11:08:33;10.38;;;7.80;;
59127;SDS011;44912;52.754;5.994;2022-11-13T11:11:06;11.93;;;7.95;;
59127;SDS011;44912;52.754;5.994;2022-11-13T11:14:31;12.30;;;8.50;;
59127;SDS011;44912;52.754;5.994;2022-11-13T11:16:53;11.63;;;8.18;;
59127;SDS011;44912;52.754;5.994;2022-11-13T11:19:21;11.25;;;8.05;;
59127;SDS011;44912;52.754;5.994;2022-11-13T11:21:51;10.60;;;8.35;;
59127;SDS011;44912;52.754;5.994;2022-11-13T11:24:28;11.00;;;7.53;;
59127;SDS011;44912;52.754;5.994;2022-11-13T11:27:03;10.25;;;6.97;;
59127;SDS011;44912;52.754;5.994;2022-11-13T11:30:16;9.30;;;6.97;;
59127;SDS011;44912;52.754;5.994;2022-11-13T11:32:42;10.55;;;7.22;;
59127;SDS011;44912;52.754;5.994;2022-11-13T11:35:15;10.18;;;7.50;;
59127;SDS011;44912;52.754;5.994;2022-11-13T11:37:55;10.50;;;7.05;;
59127;SDS011;44912;52.754;5.994;2022-11-13T11:40:29;11.48;;;7.25;;
59127;SDS011;44912;52.754;5.994;2022-11-13T11:43:14;10.95;;;7.30;;
59127;SDS011;44912;52.754;5.994;2022-11-13T11:45:51;10.02;;;7.75;;
59127;SDS011;44912;52.754;5.994;2022-11-13T11:48:17;11.43;;;7.65;;
59127;SDS011;44912;52.754;5.994;2022-11-13T11:50:53;10.27;;;7.72;;
59127;SDS011;44912;52.754;5.994;2022-11-13T11:59:11;10.32;;;7.18;;
59127;SDS011;44912;52.754;5.994;2022-11-13T12:02:01;9.07;;;6.68;;
59127;SDS011;44912;52.754;5.994;2022-11-13T12:10:45;10.13;;;7.18;;
59127;SDS011;44912;52.754;5.994;2022-11-13T12:18:48;9.13;;;6.40;;
59127;SDS011;44912;52.754;5.994;2022-11-13T12:24:40;10.07;;;6.20;;
59127;SDS011;44912;52.754;5.994;2022-11-13T12:27:15;9.77;;;6.40;;
59127;SDS011;44912;52.754;5.994;2022-11-13T12:35:34;10.48;;;5.85;;
59127;SDS011;44912;52.754;5.994;2022-11-13T12:38:10;7.72;;;5.32;;
59127;SDS011;44912;52.754;5.994;2022-11-13T12:46:05;6.63;;;4.28;;
59127;SDS011;44912;52.754;5.994;2022-11-13T12:48:34;8.23;;;4.75;;
59127;SDS011;44912;52.754;5.994;2022-11-13T12:51:12;8.02;;;4.57;;
59127;SDS011;44912;52.754;5.994;2022-11-13T12:53:52;9.70;;;5.15;;
59127;SDS011;44912;52.754;5.994;2022-11-13T13:01:29;7.60;;;4.93;;
59127;SDS011;44912;52.754;5.994;2022-11-13T13:04:03;8.40;;;5.03;;
59127;SDS011;44912;52.754;5.994;2022-11-13T13:09:22;7.85;;;4.88;;
59127;SDS011;44912;52.754;5.994;2022-11-13T13:17:04;7.60;;;5.10;;
59127;SDS011;44912;52.754;5.994;2022-11-13T13:19:38;9.77;;;4.97;;
59127;SDS011;44912;52.754;5.994;2022-11-13T13:22:22;9.20;;;5.32;;
59127;SDS011;44912;52.754;5.994;2022-11-13T13:25:04;9.50;;;5.28;;
59127;SDS011;44912;52.754;5.994;2022-11-13T13:27:55;8.30;;;5.55;;
59127;SDS011;44912;52.754;5.994;2022-11-13T13:30:23;9.05;;;5.68;;
59127;SDS011;44912;52.754;5.994;2022-11-13T13:38:14;11.85;;;7.55;;
59127;SDS011;44912;52.754;5.994;2022-11-13T13:44:08;10.40;;;7.30;;
59127;SDS011;44912;52.754;5.994;2022-11-13T13:46:47;12.75;;;7.05;;
59127;SDS011;44912;52.754;5.994;2022-11-13T13:49:14;9.60;;;6.95;;
59127;SDS011;44912;52.754;5.994;2022-11-13T13:51:43;10.25;;;7.35;;
59127;SDS011;44912;52.754;5.994;2022-11-13T13:54:14;10.27;;;7.55;;
59127;SDS011;44912;52.754;5.994;2022-11-13T13:56:46;9.57;;;6.80;;
59127;SDS011;44912;52.754;5.994;2022-11-13T13:59:16;11.10;;;7.30;;
59127;SDS011;44912;52.754;5.994;2022-11-13T14:01:54;12.23;;;8.18;;
59127;SDS011;44912;52.754;5.994;2022-11-13T14:04:22;10.48;;;7.43;;
59127;SDS011;44912;52.754;5.994;2022-11-13T14:06:51;10.13;;;7.40;;
59127;SDS011;44912;52.754;5.994;2022-11-13T14:09:19;10.82;;;7.00;;
59127;SDS011;44912;52.754;5.994;2022-11-13T14:11:47;11.75;;;7.03;;
59127;SDS011;44912;52.754;5.994;2022-11-13T14:14:21;11.43;;;7.13;;
59127;SDS011;44912;52.754;5.994;2022-11-13T14:16:49;10.15;;;6.97;;
59127;SDS011;44912;52.754;5.994;2022-11-13T14:19:16;13.68;;;7.32;;
59127;SDS011;44912;52.754;5.994;2022-11-13T14:21:42;11.43;;;6.97;;
59127;SDS011;44912;52.754;5.994;2022-11-13T14:24:13;10.50;;;7.38;;
59127;SDS011;44912;52.754;5.994;2022-11-13T14:26:44;9.68;;;7.00;;
59127;SDS011;44912;52.754;5.994;2022-11-13T14:29:14;9.60;;;6.80;;
59127;SDS011;44912;52.754;5.994;2022-11-13T14:31:46;9.55;;;6.95;;
59127;SDS011;44912;52.754;5.994;2022-11-13T14:34:15;10.07;;;7.07;;
59127;SDS011;44912;52.754;5.994;2022-11-13T14:36:44;9.88;;;7.13;;
59127;SDS011;44912;52.754;5.994;2022-11-13T14:39:29;10.10;;;6.78;;
59127;SDS011;44912;52.754;5.994;2022-11-13T14:41:57;11.35;;;6.80;;
59127;SDS011;44912;52.754;5.994;2022-11-13T14:44:24;9.40;;;6.50;;
59127;SDS011;44912;52.754;5.994;2022-11-13T14:46:59;10.88;;;7.25;;
59127;SDS011;44912;52.754;5.994;2022-11-13T14:49:28;13.07;;;6.63;;
59127;SDS011;44912;52.754;5.994;2022-11-13T14:51:56;10.05;;;6.93;;
59127;SDS011;44912;52.754;5.994;2022-11-13T14:54:28;9.90;;;6.70;;
59127;SDS011;44912;52.754;5.994;2022-11-13T14:57:05;12.05;;;6.97;;
59127;SDS011;44912;52.754;5.994;2022-11-13T14:59:35;10.25;;;6.38;;
59127;SDS011;44912;52.754;5.994;2022-11-13T15:02:02;10.45;;;6.93;;
59127;SDS011;44912;52.754;5.994;2022-11-13T15:04:28;9.85;;;6.68;;
59127;SDS011;44912;52.754;5.994;2022-11-13T15:06:58;11.20;;;6.50;;
59127;SDS011;44912;52.754;5.994;2022-11-13T15:09:25;10.55;;;6.45;;
59127;SDS011;44912;52.754;5.994;2022-11-13T15:11:51;9.52;;;6.72;;
59127;SDS011;44912;52.754;5.994;2022-11-13T15:14:18;9.30;;;6.35;;
59127;SDS011;44912;52.754;5.994;2022-11-13T15:16:45;8.60;;;6.53;;
59127;SDS011;44912;52.754;5.994;2022-11-13T15:19:15;8.93;;;6.40;;
59127;SDS011;44912;52.754;5.994;2022-11-13T15:22:01;9.52;;;6.25;;
59127;SDS011;44912;52.754;5.994;2022-11-13T15:24:27;10.05;;;6.57;;
59127;SDS011;44912;52.754;5.994;2022-11-13T15:26:52;10.27;;;6.10;;
59127;SDS011;44912;52.754;5.994;2022-11-13T15:29:18;10.35;;;6.50;;
59127;SDS011;44912;52.754;5.994;2022-11-13T15:31:45;9.13;;;6.32;;
59127;SDS011;44912;52.754;5.994;2022-11-13T15:34:12;9.18;;;6.10;;
59127;SDS011;44912;52.754;5.994;2022-11-13T15:36:39;11.32;;;6.53;;
59127;SDS011;44912;52.754;5.994;2022-11-13T15:39:06;11.88;;;6.53;;
59127;SDS011;44912;52.754;5.994;2022-11-13T15:41:32;11.05;;;6.32;;
59127;SDS011;44912;52.754;5.994;2022-11-13T15:44:00;9.20;;;6.00;;
59127;SDS011;44912;52.754;5.994;2022-11-13T15:46:28;9.77;;;6.28;;
59127;SDS011;44912;52.754;5.994;2022-11-13T15:48:54;10.18;;;6.25;;
59127;SDS011;44912;52.754;5.994;2022-11-13T15:51:24;8.98;;;5.70;;
59127;SDS011;44912;52.754;5.994;2022-11-13T15:56:35;9.50;;;6.30;;
59127;SDS011;44912;52.754;5.994;2022-11-13T15:59:01;8.73;;;5.68;;